CheckWX is a tool to help pilots better visualize weather data.  It is not intended as a substitute for an official pre-flight weather briefing.

17:08:43 UTC

EYVI METAR
Vilnius International Airport
Vilnius, Lithuania
Current

49 mins ago

EYVI 211620Z 22007KT CAVOK 27/11 Q1015 NOSIG
Observed
Jul-21 @ 16:20 UTC
Wind
  • 220° at 7 KTS
Visibility
10,000+ meters
Flight Rules
VFR
Cloud Levels
  • Clear skies
Temperature
27°C / 81°F
Dewpoint
11°C / 52°F
Humidity
37%
Altimeter
29.97" Hg
Pressure
1014.92 hPa
Previous

1 hour ago

EYVI 211550Z 17006KT 140V230 CAVOK 28/12 Q1015 NOSIG
Observed
Jul-21 @ 15:50 UTC
Wind
  • 170° at 6 KTS
Visibility
10,000+ meters
Flight Rules
VFR
Cloud Levels
  • Clear skies
Temperature
28°C / 82°F
Dewpoint
12°C / 54°F
Humidity
37%
Altimeter
29.97" Hg
Pressure
1014.92 hPa
Previous

2 hours ago

EYVI 211520Z 18006KT CAVOK 28/12 Q1015 NOSIG
Observed
Jul-21 @ 15:20 UTC
Wind
  • 180° at 6 KTS
Visibility
10,000+ meters
Flight Rules
VFR
Cloud Levels
  • Clear skies
Temperature
28°C / 82°F
Dewpoint
12°C / 54°F
Humidity
37%
Altimeter
29.97" Hg
Pressure
1014.92 hPa